sensor_id;sensor_type;location;lat;lon;timestamp;P1;durP1;ratioP1;P2;durP2;ratioP2
24650;SDS011;12783;48.824;8.662;2023-12-20T00:02:15;0.60;;;0.60;;
24650;SDS011;12783;48.824;8.662;2023-12-20T00:04:42;0.50;;;0.38;;
24650;SDS011;12783;48.824;8.662;2023-12-20T00:07:10;0.60;;;0.52;;
24650;SDS011;12783;48.824;8.662;2023-12-20T00:09:37;0.45;;;0.45;;
24650;SDS011;12783;48.824;8.662;2023-12-20T00:12:04;0.50;;;0.50;;
24650;SDS011;12783;48.824;8.662;2023-12-20T00:14:31;1.55;;;0.40;;
24650;SDS011;12783;48.824;8.662;2023-12-20T00:16:58;2.08;;;0.47;;
24650;SDS011;12783;48.824;8.662;2023-12-20T00:19:25;0.65;;;0.40;;
24650;SDS011;12783;48.824;8.662;2023-12-20T00:21:52;0.40;;;0.35;;
24650;SDS011;12783;48.824;8.662;2023-12-20T00:24:19;1.55;;;0.50;;
24650;SDS011;12783;48.824;8.662;2023-12-20T00:26:46;0.32;;;0.30;;
24650;SDS011;12783;48.824;8.662;2023-12-20T00:29:13;0.68;;;0.40;;
24650;SDS011;12783;48.824;8.662;2023-12-20T00:31:40;0.43;;;0.40;;
24650;SDS011;12783;48.824;8.662;2023-12-20T00:34:07;0.55;;;0.40;;
24650;SDS011;12783;48.824;8.662;2023-12-20T00:36:34;0.60;;;0.30;;
24650;SDS011;12783;48.824;8.662;2023-12-20T00:39:01;0.88;;;0.32;;
24650;SDS011;12783;48.824;8.662;2023-12-20T00:41:28;1.50;;;0.50;;
24650;SDS011;12783;48.824;8.662;2023-12-20T00:43:55;0.50;;;0.40;;
24650;SDS011;12783;48.824;8.662;2023-12-20T00:46:22;0.17;;;0.17;;
24650;SDS011;12783;48.824;8.662;2023-12-20T00:48:49;0.40;;;0.40;;
24650;SDS011;12783;48.824;8.662;2023-12-20T00:51:16;0.20;;;0.20;;
24650;SDS011;12783;48.824;8.662;2023-12-20T00:53:43;0.30;;;0.30;;
24650;SDS011;12783;48.824;8.662;2023-12-20T00:56:09;0.20;;;0.20;;
24650;SDS011;12783;48.824;8.662;2023-12-20T00:58:36;0.28;;;0.28;;
24650;SDS011;12783;48.824;8.662;2023-12-20T01:01:03;0.20;;;0.20;;
24650;SDS011;12783;48.824;8.662;2023-12-20T01:03:30;0.30;;;0.30;;
24650;SDS011;12783;48.824;8.662;2023-12-20T01:05:57;0.20;;;0.20;;
24650;SDS011;12783;48.824;8.662;2023-12-20T01:08:24;0.25;;;0.25;;
24650;SDS011;12783;48.824;8.662;2023-12-20T01:10:51;0.10;;;0.10;;
24650;SDS011;12783;48.824;8.662;2023-12-20T01:13:18;0.22;;;0.17;;
24650;SDS011;12783;48.824;8.662;2023-12-20T01:15:45;0.38;;;0.25;;
24650;SDS011;12783;48.824;8.662;2023-12-20T01:18:14;0.20;;;0.20;;
24650;SDS011;12783;48.824;8.662;2023-12-20T01:20:41;0.75;;;0.20;;
24650;SDS011;12783;48.824;8.662;2023-12-20T01:23:09;0.20;;;0.20;;
24650;SDS011;12783;48.824;8.662;2023-12-20T01:25:36;0.10;;;0.10;;
24650;SDS011;12783;48.824;8.662;2023-12-20T01:28:03;0.45;;;0.20;;
24650;SDS011;12783;48.824;8.662;2023-12-20T01:30:30;0.10;;;0.10;;
24650;SDS011;12783;48.824;8.662;2023-12-20T01:32:58;0.20;;;0.20;;
24650;SDS011;12783;48.824;8.662;2023-12-20T01:35:26;0.10;;;0.10;;
24650;SDS011;12783;48.824;8.662;2023-12-20T01:37:53;1.45;;;0.30;;
24650;SDS011;12783;48.824;8.662;2023-12-20T01:40:23;0.10;;;0.10;;
24650;SDS011;12783;48.824;8.662;2023-12-20T01:42:59;0.20;;;0.20;;
24650;SDS011;12783;48.824;8.662;2023-12-20T01:45:35;0.30;;;0.20;;
24650;SDS011;12783;48.824;8.662;2023-12-20T01:48:02;0.20;;;0.20;;
24650;SDS011;12783;48.824;8.662;2023-12-20T01:50:31;0.20;;;0.20;;
24650;SDS011;12783;48.824;8.662;2023-12-20T01:53:00;0.20;;;0.20;;
24650;SDS011;12783;48.824;8.662;2023-12-20T01:55:29;0.32;;;0.32;;
24650;SDS011;12783;48.824;8.662;2023-12-20T01:57:59;0.50;;;0.30;;
24650;SDS011;12783;48.824;8.662;2023-12-20T02:00:27;0.25;;;0.15;;
24650;SDS011;12783;48.824;8.662;2023-12-20T02:02:55;0.20;;;0.20;;
24650;SDS011;12783;48.824;8.662;2023-12-20T02:05:23;0.20;;;0.20;;
24650;SDS011;12783;48.824;8.662;2023-12-20T02:07:51;0.17;;;0.17;;
24650;SDS011;12783;48.824;8.662;2023-12-20T02:10:19;3.65;;;0.30;;
24650;SDS011;12783;48.824;8.662;2023-12-20T02:12:46;0.30;;;0.20;;
24650;SDS011;12783;48.824;8.662;2023-12-20T02:15:12;0.30;;;0.30;;
24650;SDS011;12783;48.824;8.662;2023-12-20T02:17:39;0.47;;;0.35;;
24650;SDS011;12783;48.824;8.662;2023-12-20T02:20:07;0.20;;;0.20;;
24650;SDS011;12783;48.824;8.662;2023-12-20T02:22:34;0.22;;;0.22;;
24650;SDS011;12783;48.824;8.662;2023-12-20T02:25:01;0.20;;;0.20;;
24650;SDS011;12783;48.824;8.662;2023-12-20T02:27:29;0.10;;;0.10;;
24650;SDS011;12783;48.824;8.662;2023-12-20T02:29:56;0.95;;;0.30;;
24650;SDS011;12783;48.824;8.662;2023-12-20T02:32:24;0.20;;;0.20;;
24650;SDS011;12783;48.824;8.662;2023-12-20T02:34:54;1.95;;;0.40;;
24650;SDS011;12783;48.824;8.662;2023-12-20T02:37:22;0.40;;;0.38;;
24650;SDS011;12783;48.824;8.662;2023-12-20T02:39:48;1.23;;;0.40;;
24650;SDS011;12783;48.824;8.662;2023-12-20T02:42:16;0.25;;;0.25;;
24650;SDS011;12783;48.824;8.662;2023-12-20T02:44:42;1.10;;;0.47;;
24650;SDS011;12783;48.824;8.662;2023-12-20T02:47:09;1.38;;;0.35;;
24650;SDS011;12783;48.824;8.662;2023-12-20T02:49:36;0.20;;;0.20;;
24650;SDS011;12783;48.824;8.662;2023-12-20T02:52:04;0.60;;;0.52;;
24650;SDS011;12783;48.824;8.662;2023-12-20T02:54:31;0.10;;;0.10;;
24650;SDS011;12783;48.824;8.662;2023-12-20T02:56:58;0.20;;;0.20;;
24650;SDS011;12783;48.824;8.662;2023-12-20T02:59:25;0.10;;;0.10;;
24650;SDS011;12783;48.824;8.662;2023-12-20T03:01:52;0.30;;;0.20;;
24650;SDS011;12783;48.824;8.662;2023-12-20T03:04:19;0.45;;;0.22;;
24650;SDS011;12783;48.824;8.662;2023-12-20T03:06:46;0.20;;;0.20;;
24650;SDS011;12783;48.824;8.662;2023-12-20T03:09:13;0.30;;;0.30;;
24650;SDS011;12783;48.824;8.662;2023-12-20T03:11:40;0.25;;;0.25;;
24650;SDS011;12783;48.824;8.662;2023-12-20T03:14:06;0.30;;;0.28;;
24650;SDS011;12783;48.824;8.662;2023-12-20T03:16:33;0.90;;;0.38;;
24650;SDS011;12783;48.824;8.662;2023-12-20T03:19:02;0.30;;;0.30;;
24650;SDS011;12783;48.824;8.662;2023-12-20T03:21:29;0.30;;;0.30;;
24650;SDS011;12783;48.824;8.662;2023-12-20T03:23:56;0.35;;;0.30;;
24650;SDS011;12783;48.824;8.662;2023-12-20T03:26:23;0.35;;;0.35;;
24650;SDS011;12783;48.824;8.662;2023-12-20T03:28:50;0.30;;;0.30;;
24650;SDS011;12783;48.824;8.662;2023-12-20T03:31:17;0.20;;;0.20;;
24650;SDS011;12783;48.824;8.662;2023-12-20T03:33:44;0.30;;;0.30;;
24650;SDS011;12783;48.824;8.662;2023-12-20T03:36:11;0.47;;;0.30;;
24650;SDS011;12783;48.824;8.662;2023-12-20T03:38:38;0.30;;;0.30;;
24650;SDS011;12783;48.824;8.662;2023-12-20T03:41:06;0.50;;;0.50;;
24650;SDS011;12783;48.824;8.662;2023-12-20T03:43:33;0.40;;;0.38;;
24650;SDS011;12783;48.824;8.662;2023-12-20T03:46:00;0.30;;;0.30;;
24650;SDS011;12783;48.824;8.662;2023-12-20T03:48:30;0.38;;;0.38;;
24650;SDS011;12783;48.824;8.662;2023-12-20T03:50:57;0.40;;;0.30;;
24650;SDS011;12783;48.824;8.662;2023-12-20T03:53:24;0.30;;;0.30;;
24650;SDS011;12783;48.824;8.662;2023-12-20T03:55:51;0.55;;;0.20;;
24650;SDS011;12783;48.824;8.662;2023-12-20T03:58:18;0.30;;;0.30;;
24650;SDS011;12783;48.824;8.662;2023-12-20T04:00:45;0.40;;;0.30;;
24650;SDS011;12783;48.824;8.662;2023-12-20T04:03:12;0.63;;;0.50;;
24650;SDS011;12783;48.824;8.662;2023-12-20T04:05:40;0.40;;;0.20;;
24650;SDS011;12783;48.824;8.662;2023-12-20T04:08:07;0.30;;;0.30;;
24650;SDS011;12783;48.824;8.662;2023-12-20T04:10:36;0.63;;;0.30;;
24650;SDS011;12783;48.824;8.662;2023-12-20T04:13:04;0.20;;;0.20;;
24650;SDS011;12783;48.824;8.662;2023-12-20T04:15:31;1.95;;;0.30;;
24650;SDS011;12783;48.824;8.662;2023-12-20T04:17:58;0.20;;;0.20;;
24650;SDS011;12783;48.824;8.662;2023-12-20T04:20:25;0.57;;;0.47;;
24650;SDS011;12783;48.824;8.662;2023-12-20T04:22:52;0.30;;;0.30;;
24650;SDS011;12783;48.824;8.662;2023-12-20T04:25:19;0.30;;;0.30;;
24650;SDS011;12783;48.824;8.662;2023-12-20T04:27:46;0.45;;;0.35;;
24650;SDS011;12783;48.824;8.662;2023-12-20T04:30:14;0.30;;;0.30;;
24650;SDS011;12783;48.824;8.662;2023-12-20T04:32:41;0.70;;;0.45;;
24650;SDS011;12783;48.824;8.662;2023-12-20T04:35:08;1.00;;;0.50;;
24650;SDS011;12783;48.824;8.662;2023-12-20T04:37:35;0.65;;;0.55;;
24650;SDS011;12783;48.824;8.662;2023-12-20T04:40:02;1.50;;;0.75;;
24650;SDS011;12783;48.824;8.662;2023-12-20T04:42:31;1.05;;;0.88;;
24650;SDS011;12783;48.824;8.662;2023-12-20T04:44:58;1.95;;;1.02;;
24650;SDS011;12783;48.824;8.662;2023-12-20T04:47:25;0.85;;;0.70;;
24650;SDS011;12783;48.824;8.662;2023-12-20T04:49:52;1.17;;;0.93;;
24650;SDS011;12783;48.824;8.662;2023-12-20T04:52:19;0.70;;;0.70;;
24650;SDS011;12783;48.824;8.662;2023-12-20T04:54:46;0.68;;;0.65;;
24650;SDS011;12783;48.824;8.662;2023-12-20T04:57:13;0.45;;;0.45;;
24650;SDS011;12783;48.824;8.662;2023-12-20T04:59:40;1.25;;;0.77;;
24650;SDS011;12783;48.824;8.662;2023-12-20T05:02:07;0.50;;;0.50;;
24650;SDS011;12783;48.824;8.662;2023-12-20T05:04:34;1.00;;;0.60;;
24650;SDS011;12783;48.824;8.662;2023-12-20T05:07:02;1.15;;;0.55;;
24650;SDS011;12783;48.824;8.662;2023-12-20T05:09:31;0.80;;;0.80;;
24650;SDS011;12783;48.824;8.662;2023-12-20T05:11:58;1.33;;;0.80;;
24650;SDS011;12783;48.824;8.662;2023-12-20T05:14:27;2.72;;;0.77;;
24650;SDS011;12783;48.824;8.662;2023-12-20T05:16:54;1.60;;;1.08;;
24650;SDS011;12783;48.824;8.662;2023-12-20T05:19:21;1.08;;;0.93;;
24650;SDS011;12783;48.824;8.662;2023-12-20T05:21:48;2.78;;;1.10;;
24650;SDS011;12783;48.824;8.662;2023-12-20T05:24:15;1.33;;;0.77;;
24650;SDS011;12783;48.824;8.662;2023-12-20T05:26:43;0.80;;;0.80;;
24650;SDS011;12783;48.824;8.662;2023-12-20T05:29:09;1.23;;;0.65;;
24650;SDS011;12783;48.824;8.662;2023-12-20T05:31:36;1.50;;;0.80;;
24650;SDS011;12783;48.824;8.662;2023-12-20T05:34:03;1.20;;;0.80;;
24650;SDS011;12783;48.824;8.662;2023-12-20T05:36:30;1.45;;;0.80;;
24650;SDS011;12783;48.824;8.662;2023-12-20T05:38:57;0.70;;;0.70;;
24650;SDS011;12783;48.824;8.662;2023-12-20T05:41:24;0.63;;;0.52;;
24650;SDS011;12783;48.824;8.662;2023-12-20T05:43:51;1.80;;;0.82;;
24650;SDS011;12783;48.824;8.662;2023-12-20T05:46:18;0.90;;;0.73;;
24650;SDS011;12783;48.824;8.662;2023-12-20T05:48:45;1.95;;;1.00;;
24650;SDS011;12783;48.824;8.662;2023-12-20T05:51:12;1.15;;;0.70;;
24650;SDS011;12783;48.824;8.662;2023-12-20T05:53:39;1.60;;;0.75;;
24650;SDS011;12783;48.824;8.662;2023-12-20T05:56:06;0.82;;;0.80;;
24650;SDS011;12783;48.824;8.662;2023-12-20T05:58:33;2.95;;;0.75;;
24650;SDS011;12783;48.824;8.662;2023-12-20T06:01:00;0.93;;;0.60;;
24650;SDS011;12783;48.824;8.662;2023-12-20T06:03:27;1.40;;;0.52;;
24650;SDS011;12783;48.824;8.662;2023-12-20T06:05:54;4.32;;;1.00;;
24650;SDS011;12783;48.824;8.662;2023-12-20T06:08:38;2.20;;;0.90;;
24650;SDS011;12783;48.824;8.662;2023-12-20T06:11:05;3.13;;;1.00;;
24650;SDS011;12783;48.824;8.662;2023-12-20T06:13:32;3.25;;;1.38;;
24650;SDS011;12783;48.824;8.662;2023-12-20T06:15:59;4.72;;;1.95;;
24650;SDS011;12783;48.824;8.662;2023-12-20T06:18:26;30.02;;;3.00;;
24650;SDS011;12783;48.824;8.662;2023-12-20T06:20:54;133.65;;;6.05;;
24650;SDS011;12783;48.824;8.662;2023-12-20T06:23:21;250.80;;;7.63;;
24650;SDS011;12783;48.824;8.662;2023-12-20T06:25:48;172.48;;;6.53;;
24650;SDS011;12783;48.824;8.662;2023-12-20T06:28:15;163.98;;;5.28;;
24650;SDS011;12783;48.824;8.662;2023-12-20T06:30:42;176.63;;;6.82;;
24650;SDS011;12783;48.824;8.662;2023-12-20T06:33:09;428.88;;;11.65;;
24650;SDS011;12783;48.824;8.662;2023-12-20T06:35:37;469.50;;;13.02;;
24650;SDS011;12783;48.824;8.662;2023-12-20T06:38:04;459.25;;;12.35;;
24650;SDS011;12783;48.824;8.662;2023-12-20T06:40:31;446.92;;;10.85;;
24650;SDS011;12783;48.824;8.662;2023-12-20T06:42:58;6.43;;;2.92;;
24650;SDS011;12783;48.824;8.662;2023-12-20T06:45:37;5.10;;;2.80;;
24650;SDS011;12783;48.824;8.662;2023-12-20T06:48:04;5.15;;;2.85;;
24650;SDS011;12783;48.824;8.662;2023-12-20T06:50:32;8.70;;;3.65;;
24650;SDS011;12783;48.824;8.662;2023-12-20T06:52:59;6.95;;;4.05;;
24650;SDS011;12783;48.824;8.662;2023-12-20T06:55:33;10.88;;;4.50;;
24650;SDS011;12783;48.824;8.662;2023-12-20T06:58:02;9.82;;;4.65;;
24650;SDS011;12783;48.824;8.662;2023-12-20T07:00:30;8.52;;;4.72;;
24650;SDS011;12783;48.824;8.662;2023-12-20T07:02:58;9.32;;;4.68;;
24650;SDS011;12783;48.824;8.662;2023-12-20T07:05:25;7.93;;;4.50;;
24650;SDS011;12783;48.824;8.662;2023-12-20T07:07:53;11.52;;;4.80;;
24650;SDS011;12783;48.824;8.662;2023-12-20T07:10:20;10.65;;;4.78;;
24650;SDS011;12783;48.824;8.662;2023-12-20T07:12:47;10.40;;;5.47;;
24650;SDS011;12783;48.824;8.662;2023-12-20T07:15:15;10.57;;;5.07;;
24650;SDS011;12783;48.824;8.662;2023-12-20T07:17:42;20.73;;;6.65;;
24650;SDS011;12783;48.824;8.662;2023-12-20T07:20:10;258.38;;;14.02;;
24650;SDS011;12783;48.824;8.662;2023-12-20T07:22:38;585.97;;;22.67;;
24650;SDS011;12783;48.824;8.662;2023-12-20T07:25:06;865.13;;;31.48;;
24650;SDS011;12783;48.824;8.662;2023-12-20T07:27:34;1205.05;;;44.63;;
24650;SDS011;12783;48.824;8.662;2023-12-20T07:30:01;546.53;;;20.58;;
24650;SDS011;12783;48.824;8.662;2023-12-20T07:32:29;870.75;;;39.67;;
24650;SDS011;12783;48.824;8.662;2023-12-20T07:34:56;852.40;;;30.27;;
24650;SDS011;12783;48.824;8.662;2023-12-20T07:37:23;12.82;;;6.40;;
24650;SDS011;12783;48.824;8.662;2023-12-20T07:39:50;14.13;;;5.78;;
24650;SDS011;12783;48.824;8.662;2023-12-20T07:42:17;14.93;;;5.50;;
24650;SDS011;12783;48.824;8.662;2023-12-20T07:44:44;16.90;;;5.43;;
24650;SDS011;12783;48.824;8.662;2023-12-20T07:47:11;13.25;;;5.63;;
24650;SDS011;12783;48.824;8.662;2023-12-20T07:49:41;9.20;;;5.10;;
24650;SDS011;12783;48.824;8.662;2023-12-20T07:52:09;9.20;;;4.53;;
24650;SDS011;12783;48.824;8.662;2023-12-20T07:54:36;14.07;;;5.95;;
24650;SDS011;12783;48.824;8.662;2023-12-20T07:57:03;14.98;;;6.28;;
24650;SDS011;12783;48.824;8.662;2023-12-20T07:59:30;12.18;;;6.97;;
24650;SDS011;12783;48.824;8.662;2023-12-20T08:01:58;8.45;;;4.90;;
24650;SDS011;12783;48.824;8.662;2023-12-20T08:04:26;17.23;;;4.65;;
24650;SDS011;12783;48.824;8.662;2023-12-20T08:06:53;7.65;;;4.18;;
24650;SDS011;12783;48.824;8.662;2023-12-20T08:09:21;11.65;;;3.90;;
24650;SDS011;12783;48.824;8.662;2023-12-20T08:11:48;10.23;;;4.32;;
24650;SDS011;12783;48.824;8.662;2023-12-20T08:14:15;13.35;;;4.65;;
24650;SDS011;12783;48.824;8.662;2023-12-20T08:16:42;11.05;;;3.80;;
24650;SDS011;12783;48.824;8.662;2023-12-20T08:19:09;7.05;;;3.45;;
24650;SDS011;12783;48.824;8.662;2023-12-20T08:21:37;5.40;;;3.20;;
24650;SDS011;12783;48.824;8.662;2023-12-20T08:24:04;11.40;;;3.38;;
24650;SDS011;12783;48.824;8.662;2023-12-20T08:26:32;15.63;;;4.63;;
24650;SDS011;12783;48.824;8.662;2023-12-20T08:28:59;10.40;;;2.58;;
24650;SDS011;12783;48.824;8.662;2023-12-20T08:31:28;9.35;;;3.00;;
24650;SDS011;12783;48.824;8.662;2023-12-20T08:33:55;12.52;;;2.58;;
24650;SDS011;12783;48.824;8.662;2023-12-20T08:36:23;8.80;;;2.58;;
24650;SDS011;12783;48.824;8.662;2023-12-20T08:38:50;4.15;;;1.90;;
24650;SDS011;12783;48.824;8.662;2023-12-20T08:41:17;9.63;;;2.50;;
24650;SDS011;12783;48.824;8.662;2023-12-20T08:43:44;11.18;;;2.70;;
24650;SDS011;12783;48.824;8.662;2023-12-20T08:46:11;8.25;;;2.28;;
24650;SDS011;12783;48.824;8.662;2023-12-20T08:48:38;18.35;;;2.72;;
24650;SDS011;12783;48.824;8.662;2023-12-20T08:51:06;4.40;;;2.08;;
24650;SDS011;12783;48.824;8.662;2023-12-20T08:53:35;4.18;;;2.13;;
24650;SDS011;12783;48.824;8.662;2023-12-20T08:56:02;11.93;;;2.38;;
24650;SDS011;12783;48.824;8.662;2023-12-20T08:58:29;9.27;;;2.60;;
24650;SDS011;12783;48.824;8.662;2023-12-20T09:00:56;10.23;;;2.33;;
24650;SDS011;12783;48.824;8.662;2023-12-20T09:03:24;12.70;;;2.33;;
24650;SDS011;12783;48.824;8.662;2023-12-20T09:05:51;4.82;;;2.45;;
24650;SDS011;12783;48.824;8.662;2023-12-20T09:08:18;10.70;;;2.60;;
24650;SDS011;12783;48.824;8.662;2023-12-20T09:10:45;7.05;;;2.45;;
24650;SDS011;12783;48.824;8.662;2023-12-20T09:13:12;10.98;;;2.75;;
24650;SDS011;12783;48.824;8.662;2023-12-20T09:15:39;7.15;;;2.22;;
24650;SDS011;12783;48.824;8.662;2023-12-20T09:18:06;5.00;;;1.98;;
24650;SDS011;12783;48.824;8.662;2023-12-20T09:20:34;6.82;;;2.28;;
24650;SDS011;12783;48.824;8.662;2023-12-20T09:23:03;9.00;;;2.00;;
24650;SDS011;12783;48.824;8.662;2023-12-20T09:25:30;13.38;;;2.45;;
24650;SDS011;12783;48.824;8.662;2023-12-20T09:27:57;8.25;;;2.03;;
24650;SDS011;12783;48.824;8.662;2023-12-20T09:30:24;5.90;;;1.95;;
24650;SDS011;12783;48.824;8.662;2023-12-20T09:32:56;7.68;;;2.15;;
24650;SDS011;12783;48.824;8.662;2023-12-20T09:35:23;7.80;;;2.13;;
24650;SDS011;12783;48.824;8.662;2023-12-20T09:37:53;9.25;;;3.20;;
24650;SDS011;12783;48.824;8.662;2023-12-20T09:40:19;7.55;;;1.88;;
24650;SDS011;12783;48.824;8.662;2023-12-20T09:45:23;9.93;;;2.15;;
24650;SDS011;12783;48.824;8.662;2023-12-20T09:47:52;5.93;;;2.42;;
24650;SDS011;12783;48.824;8.662;2023-12-20T09:50:21;11.75;;;2.60;;
24650;SDS011;12783;48.824;8.662;2023-12-20T09:52:53;8.93;;;2.20;;
24650;SDS011;12783;48.824;8.662;2023-12-20T09:55:22;9.03;;;2.17;;
24650;SDS011;12783;48.824;8.662;2023-12-20T09:57:53;9.38;;;2.28;;
24650;SDS011;12783;48.824;8.662;2023-12-20T10:00:20;14.07;;;2.60;;
24650;SDS011;12783;48.824;8.662;2023-12-20T10:02:58;4.50;;;2.10;;
24650;SDS011;12783;48.824;8.662;2023-12-20T10:05:28;8.68;;;2.15;;
24650;SDS011;12783;48.824;8.662;2023-12-20T10:07:57;7.10;;;2.63;;
24650;SDS011;12783;48.824;8.662;2023-12-20T10:10:26;8.75;;;2.15;;
24650;SDS011;12783;48.824;8.662;2023-12-20T10:13:09;5.05;;;1.80;;
24650;SDS011;12783;48.824;8.662;2023-12-20T10:15:38;3.80;;;1.95;;
24650;SDS011;12783;48.824;8.662;2023-12-20T10:18:05;10.32;;;2.35;;
24650;SDS011;12783;48.824;8.662;2023-12-20T10:20:33;8.75;;;2.22;;
24650;SDS011;12783;48.824;8.662;2023-12-20T10:23:00;8.80;;;1.90;;
24650;SDS011;12783;48.824;8.662;2023-12-20T10:25:28;9.15;;;1.95;;
24650;SDS011;12783;48.824;8.662;2023-12-20T10:28:08;6.90;;;1.85;;
24650;SDS011;12783;48.824;8.662;2023-12-20T10:30:36;5.10;;;2.05;;
24650;SDS011;12783;48.824;8.662;2023-12-20T10:33:05;6.53;;;1.88;;
24650;SDS011;12783;48.824;8.662;2023-12-20T10:35:37;6.25;;;1.90;;
24650;SDS011;12783;48.824;8.662;2023-12-20T10:38:10;9.18;;;2.20;;
24650;SDS011;12783;48.824;8.662;2023-12-20T10:43:58;13.82;;;2.55;;
24650;SDS011;12783;48.824;8.662;2023-12-20T10:46:31;8.32;;;1.90;;
24650;SDS011;12783;48.824;8.662;2023-12-20T10:48:59;6.03;;;1.85;;
24650;SDS011;12783;48.824;8.662;2023-12-20T10:51:31;9.13;;;2.03;;
24650;SDS011;12783;48.824;8.662;2023-12-20T10:54:00;4.40;;;2.50;;
24650;SDS011;12783;48.824;8.662;2023-12-20T10:56:27;6.32;;;1.98;;
24650;SDS011;12783;48.824;8.662;2023-12-20T10:59:00;6.60;;;2.22;;
24650;SDS011;12783;48.824;8.662;2023-12-20T11:01:32;9.65;;;2.15;;
24650;SDS011;12783;48.824;8.662;2023-12-20T11:04:01;6.68;;;2.00;;
24650;SDS011;12783;48.824;8.662;2023-12-20T11:14:46;6.65;;;2.20;;
24650;SDS011;12783;48.824;8.662;2023-12-20T11:17:18;8.40;;;2.10;;
24650;SDS011;12783;48.824;8.662;2023-12-20T11:22:22;5.15;;;1.80;;
24650;SDS011;12783;48.824;8.662;2023-12-20T11:24:52;11.27;;;3.27;;
24650;SDS011;12783;48.824;8.662;2023-12-20T11:27:20;6.68;;;1.90;;
24650;SDS011;12783;48.824;8.662;2023-12-20T11:29:51;4.95;;;1.90;;
24650;SDS011;12783;48.824;8.662;2023-12-20T11:34:55;5.28;;;1.77;;
24650;SDS011;12783;48.824;8.662;2023-12-20T11:37:28;5.63;;;1.85;;
24650;SDS011;12783;48.824;8.662;2023-12-20T11:40:02;14.48;;;2.10;;
24650;SDS011;12783;48.824;8.662;2023-12-20T11:42:39;10.10;;;2.05;;
24650;SDS011;12783;48.824;8.662;2023-12-20T11:45:11;7.40;;;2.20;;
24650;SDS011;12783;48.824;8.662;2023-12-20T11:47:46;9.02;;;1.95;;
24650;SDS011;12783;48.824;8.662;2023-12-20T11:50:22;8.07;;;1.77;;
24650;SDS011;12783;48.824;8.662;2023-12-20T11:52:51;6.70;;;1.90;;
24650;SDS011;12783;48.824;8.662;2023-12-20T11:55:19;8.02;;;1.40;;
24650;SDS011;12783;48.824;8.662;2023-12-20T11:57:47;9.23;;;1.98;;
24650;SDS011;12783;48.824;8.662;2023-12-20T12:00:14;11.65;;;1.75;;
24650;SDS011;12783;48.824;8.662;2023-12-20T12:02:42;8.68;;;1.70;;
24650;SDS011;12783;48.824;8.662;2023-12-20T12:05:12;12.77;;;2.20;;
24650;SDS011;12783;48.824;8.662;2023-12-20T12:07:39;5.88;;;1.90;;
24650;SDS011;12783;48.824;8.662;2023-12-20T12:10:06;7.30;;;2.08;;
24650;SDS011;12783;48.824;8.662;2023-12-20T12:12:34;10.55;;;1.73;;
24650;SDS011;12783;48.824;8.662;2023-12-20T12:15:01;5.53;;;1.52;;
24650;SDS011;12783;48.824;8.662;2023-12-20T12:17:29;8.85;;;1.88;;
24650;SDS011;12783;48.824;8.662;2023-12-20T12:20:03;6.13;;;1.48;;
24650;SDS011;12783;48.824;8.662;2023-12-20T12:22:31;4.22;;;1.48;;
24650;SDS011;12783;48.824;8.662;2023-12-20T12:25:05;5.45;;;1.67;;
24650;SDS011;12783;48.824;8.662;2023-12-20T12:27:41;5.80;;;1.42;;
24650;SDS011;12783;48.824;8.662;2023-12-20T12:30:10;6.03;;;1.95;;
24650;SDS011;12783;48.824;8.662;2023-12-20T12:32:39;9.43;;;1.52;;
24650;SDS011;12783;48.824;8.662;2023-12-20T12:35:07;3.78;;;1.38;;
24650;SDS011;12783;48.824;8.662;2023-12-20T12:37:36;5.88;;;1.55;;
24650;SDS011;12783;48.824;8.662;2023-12-20T12:40:11;7.65;;;1.60;;
24650;SDS011;12783;48.824;8.662;2023-12-20T12:42:41;9.70;;;1.23;;
24650;SDS011;12783;48.824;8.662;2023-12-20T12:45:11;4.72;;;1.50;;
24650;SDS011;12783;48.824;8.662;2023-12-20T12:47:38;8.52;;;1.48;;
24650;SDS011;12783;48.824;8.662;2023-12-20T12:50:06;3.83;;;1.40;;
24650;SDS011;12783;48.824;8.662;2023-12-20T12:52:35;8.75;;;1.33;;
24650;SDS011;12783;48.824;8.662;2023-12-20T12:55:02;4.45;;;1.63;;
24650;SDS011;12783;48.824;8.662;2023-12-20T12:57:31;5.82;;;1.50;;
24650;SDS011;12783;48.824;8.662;2023-12-20T13:00:00;5.53;;;1.30;;
24650;SDS011;12783;48.824;8.662;2023-12-20T13:02:27;6.57;;;1.50;;
24650;SDS011;12783;48.824;8.662;2023-12-20T13:04:54;8.27;;;1.55;;
24650;SDS011;12783;48.824;8.662;2023-12-20T13:07:22;4.78;;;1.50;;
24650;SDS011;12783;48.824;8.662;2023-12-20T13:09:49;7.20;;;1.73;;
24650;SDS011;12783;48.824;8.662;2023-12-20T13:12:16;6.18;;;1.80;;
24650;SDS011;12783;48.824;8.662;2023-12-20T13:14:43;6.80;;;2.10;;
24650;SDS011;12783;48.824;8.662;2023-12-20T13:17:10;5.38;;;1.70;;
24650;SDS011;12783;48.824;8.662;2023-12-20T13:19:37;9.25;;;1.77;;
24650;SDS011;12783;48.824;8.662;2023-12-20T13:22:04;7.93;;;2.10;;
24650;SDS011;12783;48.824;8.662;2023-12-20T13:24:32;4.18;;;1.55;;
24650;SDS011;12783;48.824;8.662;2023-12-20T13:27:01;7.38;;;1.85;;
24650;SDS011;12783;48.824;8.662;2023-12-20T13:29:28;3.33;;;1.50;;
24650;SDS011;12783;48.824;8.662;2023-12-20T13:31:55;7.13;;;2.03;;
24650;SDS011;12783;48.824;8.662;2023-12-20T13:34:24;6.05;;;1.70;;
24650;SDS011;12783;48.824;8.662;2023-12-20T13:36:52;7.40;;;1.90;;
24650;SDS011;12783;48.824;8.662;2023-12-20T13:39:19;8.40;;;1.73;;
24650;SDS011;12783;48.824;8.662;2023-12-20T13:41:47;6.70;;;1.73;;
24650;SDS011;12783;48.824;8.662;2023-12-20T13:44:15;4.45;;;1.27;;
24650;SDS011;12783;48.824;8.662;2023-12-20T13:46:42;7.45;;;1.95;;
24650;SDS011;12783;48.824;8.662;2023-12-20T13:49:09;7.88;;;1.92;;
24650;SDS011;12783;48.824;8.662;2023-12-20T13:51:37;5.68;;;1.80;;
24650;SDS011;12783;48.824;8.662;2023-12-20T13:54:05;5.20;;;1.85;;
24650;SDS011;12783;48.824;8.662;2023-12-20T13:56:33;10.07;;;2.00;;
24650;SDS011;12783;48.824;8.662;2023-12-20T13:59:13;9.48;;;1.58;;
24650;SDS011;12783;48.824;8.662;2023-12-20T14:01:44;6.20;;;1.60;;
24650;SDS011;12783;48.824;8.662;2023-12-20T14:04:12;11.30;;;2.00;;
24650;SDS011;12783;48.824;8.662;2023-12-20T14:06:59;9.63;;;2.40;;
24650;SDS011;12783;48.824;8.662;2023-12-20T14:09:27;12.63;;;2.72;;
24650;SDS011;12783;48.824;8.662;2023-12-20T14:11:55;8.75;;;2.58;;
24650;SDS011;12783;48.824;8.662;2023-12-20T14:14:23;6.88;;;1.80;;
24650;SDS011;12783;48.824;8.662;2023-12-20T14:16:50;8.45;;;1.88;;
24650;SDS011;12783;48.824;8.662;2023-12-20T14:19:18;7.60;;;1.95;;
24650;SDS011;12783;48.824;8.662;2023-12-20T14:21:45;4.65;;;2.10;;
24650;SDS011;12783;48.824;8.662;2023-12-20T14:24:13;7.50;;;1.70;;
24650;SDS011;12783;48.824;8.662;2023-12-20T14:26:42;5.40;;;2.65;;
24650;SDS011;12783;48.824;8.662;2023-12-20T14:29:10;9.15;;;2.40;;
24650;SDS011;12783;48.824;8.662;2023-12-20T14:31:37;10.38;;;2.88;;
24650;SDS011;12783;48.824;8.662;2023-12-20T14:34:06;11.38;;;2.30;;
24650;SDS011;12783;48.824;8.662;2023-12-20T14:36:34;7.22;;;2.05;;
24650;SDS011;12783;48.824;8.662;2023-12-20T14:39:02;12.48;;;1.75;;
24650;SDS011;12783;48.824;8.662;2023-12-20T14:41:31;5.68;;;1.70;;
24650;SDS011;12783;48.824;8.662;2023-12-20T14:43:58;9.27;;;1.98;;
24650;SDS011;12783;48.824;8.662;2023-12-20T14:46:31;9.02;;;2.00;;
24650;SDS011;12783;48.824;8.662;2023-12-20T14:48:58;8.50;;;1.70;;
24650;SDS011;12783;48.824;8.662;2023-12-20T14:51:28;10.55;;;2.03;;
24650;SDS011;12783;48.824;8.662;2023-12-20T14:53:55;9.82;;;2.10;;
24650;SDS011;12783;48.824;8.662;2023-12-20T14:56:23;12.38;;;1.75;;
24650;SDS011;12783;48.824;8.662;2023-12-20T14:58:52;6.75;;;2.28;;
24650;SDS011;12783;48.824;8.662;2023-12-20T15:01:20;7.57;;;1.70;;
24650;SDS011;12783;48.824;8.662;2023-12-20T15:03:48;4.85;;;1.80;;
24650;SDS011;12783;48.824;8.662;2023-12-20T15:06:16;7.15;;;1.88;;
24650;SDS011;12783;48.824;8.662;2023-12-20T15:08:43;7.07;;;1.73;;